Weather at Mc Connell Air Force Base

Public forecast

Using degrees Fahrenheit for public forecast. Weather courtesy of forecast.io.

Current aviation weather report (METAR) for Mc Connell Air Force Base

Retrieved 2020/10/29 04:06 UTC (9 minutes ago):

KIAB 290406Z AUTO 03018KT 5SM +RA BR OVC006 05/05 A2978 RMK AO2 SLP095

Aviation forecast (TAF) for Mc Connell Air Force Base

Retrieved 2020-10-29 02:09 UTC (2 hours ago):

TAF KIAB 290200Z 2902/3008 02012KT 4800 RA BR OVC006 WS020/05045KT QNH2979INS BECMG 2911/2912 35018KT 8000 -DZ OVC010 QNH2996INS BECMG 2914/2915 35020G30KT 9999 NSW SCT020 QNH3017INS BECMG 2923/2924 VRB06KT 9999 SKC QNH3019INS BECMG 3005/3006 VRB06KT 9000 BR SKC QNH3021INS TX10/2920Z TN02/2912Z